createdAt,value
2018-11-25T00:09:22.937Z,27.97
2018-11-25T00:19:37.821Z,27.83
2018-11-25T00:29:53.476Z,27.30
2018-11-25T00:40:09.396Z,26.07
2018-11-25T00:50:25.343Z,25.70
2018-11-25T01:00:40.284Z,25.43
2018-11-25T01:10:55.540Z,23.33
2018-11-25T01:21:11.039Z,24.67
2018-11-25T01:31:26.141Z,27.30
2018-11-25T01:41:41.980Z,27.23
2018-11-25T01:51:57.107Z,26.13
2018-11-25T02:02:12.685Z,25.27
2018-11-25T02:12:28.183Z,23.70
2018-11-25T02:22:43.262Z,24.63
2018-11-25T02:32:58.489Z,23.93
2018-11-25T02:43:14.091Z,25.00
2018-11-25T02:53:29.164Z,27.03
2018-11-25T03:03:44.319Z,25.10
2018-11-25T03:13:59.912Z,25.27
2018-11-25T03:24:15.037Z,23.40
2018-11-25T03:34:30.396Z,23.50
2018-11-25T03:44:45.972Z,21.80
2018-11-25T03:55:00.970Z,23.13
2018-11-25T04:05:16.209Z,24.30
2018-11-25T04:15:31.542Z,22.80
2018-11-25T04:25:46.598Z,23.63
2018-11-25T04:36:12.089Z,21.70
2018-11-25T04:46:27.180Z,23.23
2018-11-25T04:56:43.477Z,21.73
2018-11-25T05:07:18.304Z,22.43
2018-11-25T05:17:33.962Z,22.27
2018-11-25T05:27:49.336Z,23.90
2018-11-25T05:38:04.274Z,25.40
2018-11-25T05:48:20.021Z,25.93
2018-11-25T05:58:34.767Z,27.30
2018-11-25T06:08:50.266Z,25.33
2018-11-25T06:19:05.675Z,26.90
2018-11-25T06:29:22.323Z,28.00
2018-11-25T06:39:37.027Z,25.43
2018-11-25T06:49:52.967Z,26.37
2018-11-25T07:00:15.527Z,26.43
2018-11-25T07:10:30.632Z,25.13
2018-11-25T07:20:45.501Z,25.33
2018-11-25T07:31:00.853Z,27.17
2018-11-25T07:41:16.409Z,28.20
2018-11-25T07:51:31.287Z,28.85
2018-11-25T08:01:46.725Z,28.35
2018-11-25T08:12:02.330Z,28.03
2018-11-25T08:22:18.631Z,28.90
2018-11-25T08:32:33.964Z,27.60
2018-11-25T08:42:51.186Z,26.87
2018-11-25T08:53:06.801Z,27.70
2018-11-25T09:14:00.008Z,27.40
2018-11-25T09:24:16.299Z,27.60
2018-11-25T09:34:31.144Z,25.93
2018-11-25T09:44:48.113Z,26.37
2018-11-25T09:55:10.584Z,26.44
2018-11-25T10:05:25.578Z,25.80
2018-11-25T10:15:46.595Z,27.57
2018-11-25T10:26:02.140Z,30.60
2018-11-25T10:46:40.816Z,29.85
2018-11-25T10:56:58.377Z,33.45
2018-11-25T11:07:20.914Z,34.08
2018-11-25T11:17:36.368Z,33.47
2018-11-25T11:38:27.157Z,31.67
2018-11-25T11:48:43.688Z,29.60
2018-11-25T11:59:00.659Z,27.93
2018-11-25T12:09:17.937Z,26.20
2018-11-25T12:19:33.909Z,25.07
2018-11-25T12:29:50.312Z,26.47
2018-11-25T12:40:15.947Z,28.13
2018-11-25T12:50:34.255Z,27.17
2018-11-25T13:00:53.534Z,27.57
2018-11-25T13:11:22.803Z,28.55
2018-11-25T13:21:40.185Z,26.93
2018-11-25T13:53:00.286Z,26.57
2018-11-25T14:03:30.153Z,26.33
2018-11-25T14:13:47.766Z,28.47
2018-11-25T14:24:06.311Z,27.36
2018-11-25T14:34:23.234Z,28.33
2018-11-25T14:44:39.597Z,27.27
2018-11-25T14:55:15.841Z,30.93
2018-11-25T15:07:24.227Z,29.20
2018-11-25T15:17:50.798Z,27.37
2018-11-25T15:28:11.456Z,28.57
2018-11-25T15:38:36.076Z,30.43
2018-11-25T15:48:51.600Z,31.57
2018-11-25T15:59:06.520Z,50.63
2018-11-25T16:09:22.074Z,38.50
2018-11-25T16:19:37.294Z,37.20
2018-11-25T16:30:09.651Z,34.83
2018-11-25T17:14:03.675Z,36.08
2018-11-25T17:24:18.896Z,35.68
2018-11-25T17:34:35.112Z,36.00
2018-11-25T17:44:51.260Z,37.47
2018-11-25T17:55:08.117Z,37.23
2018-11-25T18:05:24.803Z,37.40
2018-11-25T18:15:39.665Z,37.00
2018-11-25T18:25:54.856Z,37.30
2018-11-25T18:36:11.395Z,36.30
2018-11-25T18:46:27.430Z,35.73
2018-11-25T18:56:42.981Z,37.67
2018-11-25T19:06:57.926Z,37.50
2018-11-25T19:17:15.381Z,38.73
2018-11-25T19:27:30.347Z,39.87
2018-11-25T19:37:46.216Z,40.47
2018-11-25T19:48:01.720Z,43.50
2018-11-25T19:58:17.265Z,41.43
2018-11-25T20:08:32.761Z,38.77
2018-11-25T20:18:48.982Z,38.87
2018-11-25T20:29:05.022Z,36.13
2018-11-25T20:39:25.709Z,38.73
2018-11-25T20:49:41.534Z,40.13
2018-11-25T20:59:56.665Z,39.07
2018-11-25T21:10:12.617Z,41.57
2018-11-25T21:20:27.344Z,40.13
2018-11-25T21:30:42.844Z,42.53
2018-11-25T21:40:58.592Z,43.47
2018-11-25T21:51:13.924Z,39.77
2018-11-25T22:01:31.483Z,39.37
2018-11-25T22:11:47.189Z,37.87
2018-11-25T22:22:04.619Z,40.50
2018-11-25T22:32:19.831Z,37.80
2018-11-25T22:42:35.548Z,38.30
2018-11-25T22:52:50.883Z,36.53
2018-11-25T23:03:06.798Z,37.63
2018-11-25T23:13:21.685Z,38.40
2018-11-25T23:23:36.780Z,38.80
2018-11-25T23:33:52.058Z,39.93
2018-11-25T23:44:07.338Z,40.83
2018-11-25T23:54:22.699Z,41.77
